sensor_id;sensor_type;location;lat;lon;timestamp;pressure;altitude;pressure_sealevel;temperature;humidity
37170;BME280;23062;13.952;100.608;2023-05-19T00:00:16;1008.36;;;32.48;51.59
37170;BME280;23062;13.952;100.608;2023-05-19T00:04:45;1008.37;;;32.47;51.55
37170;BME280;23062;13.952;100.608;2023-05-19T00:09:12;1008.42;;;32.48;51.63
37170;BME280;23062;13.952;100.608;2023-05-19T00:13:41;1008.51;;;32.51;51.59
37170;BME280;23062;13.952;100.608;2023-05-19T00:18:09;1008.58;;;32.50;51.53
37170;BME280;23062;13.952;100.608;2023-05-19T00:22:39;1008.69;;;32.50;51.47
37170;BME280;23062;13.952;100.608;2023-05-19T00:27:13;1008.75;;;32.51;51.57
37170;BME280;23062;13.952;100.608;2023-05-19T00:31:39;1008.80;;;32.55;51.64
37170;BME280;23062;13.952;100.608;2023-05-19T00:36:05;1008.78;;;32.53;51.86
37170;BME280;23062;13.952;100.608;2023-05-19T00:40:32;1008.77;;;32.56;51.80
37170;BME280;23062;13.952;100.608;2023-05-19T00:44:58;1008.90;;;32.60;51.79
37170;BME280;23062;13.952;100.608;2023-05-19T00:49:27;1008.84;;;32.61;51.64
37170;BME280;23062;13.952;100.608;2023-05-19T00:53:52;1008.91;;;32.64;51.49
37170;BME280;23062;13.952;100.608;2023-05-19T00:58:19;1008.91;;;32.66;51.52
37170;BME280;23062;13.952;100.608;2023-05-19T01:02:50;1008.98;;;32.70;51.58
37170;BME280;23062;13.952;100.608;2023-05-19T01:07:17;1009.02;;;32.73;51.50
37170;BME280;23062;13.952;100.608;2023-05-19T01:11:47;1008.99;;;32.77;51.52
37170;BME280;23062;13.952;100.608;2023-05-19T01:20:43;1009.00;;;32.80;51.19
37170;BME280;23062;13.952;100.608;2023-05-19T01:30:28;1009.15;;;32.87;52.55
37170;BME280;23062;13.952;100.608;2023-05-19T01:39:33;1009.14;;;32.91;52.92
37170;BME280;23062;13.952;100.608;2023-05-19T01:44:03;1009.13;;;32.93;53.15
37170;BME280;23062;13.952;100.608;2023-05-19T01:53:04;1009.16;;;33.00;52.91
37170;BME280;23062;13.952;100.608;2023-05-19T01:57:45;1009.19;;;33.05;52.72
37170;BME280;23062;13.952;100.608;2023-05-19T02:02:20;1009.18;;;33.09;52.57
37170;BME280;23062;13.952;100.608;2023-05-19T02:06:59;1009.17;;;33.12;51.92
37170;BME280;23062;13.952;100.608;2023-05-19T02:11:45;1009.23;;;33.16;51.81
37170;BME280;23062;13.952;100.608;2023-05-19T02:20:46;1009.29;;;33.25;51.76
37170;BME280;23062;13.952;100.608;2023-05-19T02:25:14;1009.29;;;33.27;51.48
37170;BME280;23062;13.952;100.608;2023-05-19T02:29:39;1009.32;;;33.28;51.63
37170;BME280;23062;13.952;100.608;2023-05-19T02:34:05;1009.30;;;33.33;51.26
37170;BME280;23062;13.952;100.608;2023-05-19T02:38:32;1009.28;;;33.33;51.15
37170;BME280;23062;13.952;100.608;2023-05-19T02:42:58;1009.36;;;33.38;51.34
37170;BME280;23062;13.952;100.608;2023-05-19T02:47:25;1009.22;;;33.41;51.05
37170;BME280;23062;13.952;100.608;2023-05-19T02:51:50;1009.19;;;33.44;50.83
37170;BME280;23062;13.952;100.608;2023-05-19T02:56:20;1009.28;;;33.48;50.89
37170;BME280;23062;13.952;100.608;2023-05-19T03:00:44;1009.23;;;33.49;50.37
37170;BME280;23062;13.952;100.608;2023-05-19T03:05:12;1009.19;;;33.51;49.97
37170;BME280;23062;13.952;100.608;2023-05-19T03:09:37;1009.16;;;33.54;50.04
37170;BME280;23062;13.952;100.608;2023-05-19T03:14:03;1009.10;;;33.57;50.27
37170;BME280;23062;13.952;100.608;2023-05-19T03:18:29;1009.12;;;33.60;49.95
37170;BME280;23062;13.952;100.608;2023-05-19T03:22:54;1009.01;;;33.63;49.82
37170;BME280;23062;13.952;100.608;2023-05-19T03:27:21;1009.03;;;33.66;49.91
37170;BME280;23062;13.952;100.608;2023-05-19T03:31:48;1009.07;;;33.73;49.89
37170;BME280;23062;13.952;100.608;2023-05-19T03:36:15;1009.06;;;33.76;49.87
37170;BME280;23062;13.952;100.608;2023-05-19T03:40:43;1009.01;;;33.77;49.88
37170;BME280;23062;13.952;100.608;2023-05-19T03:45:10;1009.03;;;33.77;50.18
37170;BME280;23062;13.952;100.608;2023-05-19T03:49:37;1009.00;;;33.79;50.02
37170;BME280;23062;13.952;100.608;2023-05-19T03:54:02;1008.94;;;33.82;49.53
37170;BME280;23062;13.952;100.608;2023-05-19T03:58:30;1008.75;;;33.84;49.32
37170;BME280;23062;13.952;100.608;2023-05-19T04:02:56;1008.70;;;33.88;48.53
37170;BME280;23062;13.952;100.608;2023-05-19T04:07:26;1008.70;;;33.90;48.61
37170;BME280;23062;13.952;100.608;2023-05-19T04:11:52;1008.57;;;33.94;48.24
37170;BME280;23062;13.952;100.608;2023-05-19T04:16:17;1008.46;;;33.93;48.48
37170;BME280;23062;13.952;100.608;2023-05-19T04:20:44;1008.51;;;33.97;48.44
37170;BME280;23062;13.952;100.608;2023-05-19T04:25:21;1008.48;;;34.03;47.96
37170;BME280;23062;13.952;100.608;2023-05-19T04:29:51;1008.47;;;33.99;48.17
37170;BME280;23062;13.952;100.608;2023-05-19T04:34:17;1008.38;;;34.04;47.99
37170;BME280;23062;13.952;100.608;2023-05-19T04:38:43;1008.44;;;34.09;47.17
37170;BME280;23062;13.952;100.608;2023-05-19T04:43:10;1008.42;;;34.16;47.27
37170;BME280;23062;13.952;100.608;2023-05-19T04:47:40;1008.33;;;34.16;47.57
37170;BME280;23062;13.952;100.608;2023-05-19T04:52:09;1008.32;;;34.18;47.38
37170;BME280;23062;13.952;100.608;2023-05-19T04:56:43;1008.19;;;34.27;47.10
37170;BME280;23062;13.952;100.608;2023-05-19T05:01:16;1008.09;;;34.33;47.28
37170;BME280;23062;13.952;100.608;2023-05-19T05:05:47;1008.10;;;34.41;47.50
37170;BME280;23062;13.952;100.608;2023-05-19T05:10:16;1008.07;;;34.45;47.42
37170;BME280;23062;13.952;100.608;2023-05-19T05:14:43;1008.01;;;34.51;47.00
37170;BME280;23062;13.952;100.608;2023-05-19T05:19:10;1007.87;;;34.51;46.55
37170;BME280;23062;13.952;100.608;2023-05-19T05:23:39;1007.83;;;34.54;46.19
37170;BME280;23062;13.952;100.608;2023-05-19T05:32:39;1007.68;;;34.52;46.03
37170;BME280;23062;13.952;100.608;2023-05-19T05:37:09;1007.63;;;34.54;45.59
37170;BME280;23062;13.952;100.608;2023-05-19T05:41:32;1007.53;;;34.56;45.09
37170;BME280;23062;13.952;100.608;2023-05-19T05:46:01;1007.43;;;34.63;44.85
37170;BME280;23062;13.952;100.608;2023-05-19T05:50:27;1007.43;;;34.71;45.16
37170;BME280;23062;13.952;100.608;2023-05-19T05:54:55;1007.33;;;34.74;44.21
37170;BME280;23062;13.952;100.608;2023-05-19T05:59:23;1007.27;;;34.75;44.05
37170;BME280;23062;13.952;100.608;2023-05-19T06:03:49;1007.21;;;34.75;44.95
37170;BME280;23062;13.952;100.608;2023-05-19T06:08:18;1007.20;;;34.78;45.09
37170;BME280;23062;13.952;100.608;2023-05-19T06:12:47;1007.12;;;34.85;44.86
37170;BME280;23062;13.952;100.608;2023-05-19T06:17:12;1007.06;;;34.85;44.97
37170;BME280;23062;13.952;100.608;2023-05-19T06:21:45;1006.95;;;34.87;44.54
37170;BME280;23062;13.952;100.608;2023-05-19T06:26:13;1006.88;;;34.89;44.58
37170;BME280;23062;13.952;100.608;2023-05-19T06:30:38;1006.79;;;34.92;44.49
37170;BME280;23062;13.952;100.608;2023-05-19T06:35:05;1006.78;;;34.92;44.39
37170;BME280;23062;13.952;100.608;2023-05-19T06:39:31;1006.62;;;34.98;43.71
37170;BME280;23062;13.952;100.608;2023-05-19T06:43:57;1006.54;;;35.00;43.73
37170;BME280;23062;13.952;100.608;2023-05-19T06:48:26;1006.47;;;35.02;43.53
37170;BME280;23062;13.952;100.608;2023-05-19T06:52:55;1006.36;;;35.05;42.70
37170;BME280;23062;13.952;100.608;2023-05-19T06:57:24;1006.28;;;35.00;42.38
37170;BME280;23062;13.952;100.608;2023-05-19T07:01:54;1006.09;;;35.04;42.85
37170;BME280;23062;13.952;100.608;2023-05-19T07:06:34;1006.04;;;35.10;43.09
37170;BME280;23062;13.952;100.608;2023-05-19T07:10:58;1005.88;;;35.08;43.35
37170;BME280;23062;13.952;100.608;2023-05-19T07:15:24;1005.86;;;35.06;43.47
37170;BME280;23062;13.952;100.608;2023-05-19T07:19:50;1005.78;;;35.00;43.84
37170;BME280;23062;13.952;100.608;2023-05-19T07:24:16;1005.71;;;34.99;44.17
37170;BME280;23062;13.952;100.608;2023-05-19T07:28:46;1005.76;;;35.02;44.34
37170;BME280;23062;13.952;100.608;2023-05-19T07:33:24;1005.68;;;35.02;43.45
37170;BME280;23062;13.952;100.608;2023-05-19T07:37:52;1005.60;;;35.01;42.65
37170;BME280;23062;13.952;100.608;2023-05-19T07:42:21;1005.54;;;35.07;42.45
37170;BME280;23062;13.952;100.608;2023-05-19T07:46:48;1005.45;;;35.09;42.88
37170;BME280;23062;13.952;100.608;2023-05-19T07:51:22;1005.33;;;35.10;42.46
37170;BME280;23062;13.952;100.608;2023-05-19T07:55:45;1005.28;;;35.10;43.13
37170;BME280;23062;13.952;100.608;2023-05-19T08:00:11;1005.22;;;35.07;43.07
37170;BME280;23062;13.952;100.608;2023-05-19T08:04:37;1005.28;;;35.07;42.98
37170;BME280;23062;13.952;100.608;2023-05-19T08:13:33;1005.13;;;35.09;43.09
37170;BME280;23062;13.952;100.608;2023-05-19T08:17:59;1005.11;;;35.09;43.42
37170;BME280;23062;13.952;100.608;2023-05-19T08:22:28;1005.05;;;35.12;43.06
37170;BME280;23062;13.952;100.608;2023-05-19T08:26:57;1005.00;;;35.07;43.29
37170;BME280;23062;13.952;100.608;2023-05-19T08:31:29;1004.99;;;35.10;43.13
37170;BME280;23062;13.952;100.608;2023-05-19T08:35:56;1004.88;;;35.11;42.95
37170;BME280;23062;13.952;100.608;2023-05-19T08:40:23;1004.84;;;35.12;42.89
37170;BME280;23062;13.952;100.608;2023-05-19T08:44:51;1004.79;;;35.16;42.68
37170;BME280;23062;13.952;100.608;2023-05-19T08:49:18;1004.72;;;35.11;42.85
37170;BME280;23062;13.952;100.608;2023-05-19T08:53:47;1004.66;;;35.14;42.66
37170;BME280;23062;13.952;100.608;2023-05-19T08:58:22;1004.66;;;35.15;43.01
37170;BME280;23062;13.952;100.608;2023-05-19T09:02:44;1004.65;;;35.17;43.14
37170;BME280;23062;13.952;100.608;2023-05-19T09:07:14;1004.50;;;35.10;43.52
37170;BME280;23062;13.952;100.608;2023-05-19T09:11:45;1004.39;;;35.09;43.58
37170;BME280;23062;13.952;100.608;2023-05-19T09:16:15;1004.32;;;35.07;43.81
37170;BME280;23062;13.952;100.608;2023-05-19T09:20:43;1004.21;;;35.06;44.00
37170;BME280;23062;13.952;100.608;2023-05-19T09:25:25;1004.20;;;35.06;43.83
37170;BME280;23062;13.952;100.608;2023-05-19T09:29:49;1004.10;;;35.08;43.56
37170;BME280;23062;13.952;100.608;2023-05-19T09:34:17;1004.08;;;35.13;43.76
37170;BME280;23062;13.952;100.608;2023-05-19T09:38:51;1004.02;;;35.10;43.97
37170;BME280;23062;13.952;100.608;2023-05-19T09:43:17;1003.94;;;35.09;43.97
37170;BME280;23062;13.952;100.608;2023-05-19T09:47:45;1003.95;;;35.16;43.44
37170;BME280;23062;13.952;100.608;2023-05-19T09:52:14;1003.96;;;35.16;43.27
37170;BME280;23062;13.952;100.608;2023-05-19T09:56:39;1003.96;;;35.16;43.43
37170;BME280;23062;13.952;100.608;2023-05-19T10:01:08;1003.99;;;35.20;43.94
37170;BME280;23062;13.952;100.608;2023-05-19T10:05:37;1003.95;;;35.18;45.65
37170;BME280;23062;13.952;100.608;2023-05-19T10:10:07;1003.96;;;35.14;45.97
37170;BME280;23062;13.952;100.608;2023-05-19T10:14:32;1004.00;;;35.12;45.77
37170;BME280;23062;13.952;100.608;2023-05-19T10:18:59;1004.02;;;35.10;45.84
37170;BME280;23062;13.952;100.608;2023-05-19T10:23:35;1004.05;;;35.10;45.93
37170;BME280;23062;13.952;100.608;2023-05-19T10:28:07;1004.10;;;35.10;45.62
37170;BME280;23062;13.952;100.608;2023-05-19T10:32:33;1004.14;;;35.08;45.12
37170;BME280;23062;13.952;100.608;2023-05-19T10:37:22;1004.14;;;35.09;45.07
37170;BME280;23062;13.952;100.608;2023-05-19T10:46:51;1004.22;;;35.06;44.91
37170;BME280;23062;13.952;100.608;2023-05-19T10:51:17;1004.28;;;35.06;44.63
37170;BME280;23062;13.952;100.608;2023-05-19T10:55:50;1004.30;;;35.06;44.35
37170;BME280;23062;13.952;100.608;2023-05-19T11:00:33;1004.34;;;35.06;44.53
37170;BME280;23062;13.952;100.608;2023-05-19T11:05:10;1004.29;;;35.04;44.32
37170;BME280;23062;13.952;100.608;2023-05-19T11:09:39;1004.34;;;35.04;44.39
37170;BME280;23062;13.952;100.608;2023-05-19T11:14:08;1004.38;;;35.01;44.54
37170;BME280;23062;13.952;100.608;2023-05-19T11:18:34;1004.46;;;34.98;44.71
37170;BME280;23062;13.952;100.608;2023-05-19T11:23:07;1004.49;;;34.96;44.73
37170;BME280;23062;13.952;100.608;2023-05-19T11:27:34;1004.48;;;34.93;44.84
37170;BME280;23062;13.952;100.608;2023-05-19T11:32:01;1004.50;;;34.92;44.92
37170;BME280;23062;13.952;100.608;2023-05-19T11:36:33;1004.51;;;34.89;44.94
37170;BME280;23062;13.952;100.608;2023-05-19T11:41:03;1004.57;;;34.88;44.78
37170;BME280;23062;13.952;100.608;2023-05-19T11:45:31;1004.53;;;34.87;44.79
37170;BME280;23062;13.952;100.608;2023-05-19T11:49:57;1004.62;;;34.86;44.99
37170;BME280;23062;13.952;100.608;2023-05-19T11:54:28;1004.69;;;34.85;45.05
37170;BME280;23062;13.952;100.608;2023-05-19T11:58:52;1004.76;;;34.83;45.25
37170;BME280;23062;13.952;100.608;2023-05-19T12:03:19;1004.79;;;34.83;45.51
37170;BME280;23062;13.952;100.608;2023-05-19T12:07:46;1004.89;;;34.82;45.62
37170;BME280;23062;13.952;100.608;2023-05-19T12:12:29;1004.99;;;34.81;45.50
37170;BME280;23062;13.952;100.608;2023-05-19T12:16:50;1005.00;;;34.80;45.25
37170;BME280;23062;13.952;100.608;2023-05-19T12:21:15;1005.06;;;34.80;45.13
37170;BME280;23062;13.952;100.608;2023-05-19T12:25:41;1005.08;;;34.79;45.11
37170;BME280;23062;13.952;100.608;2023-05-19T12:30:09;1005.22;;;34.78;44.71
37170;BME280;23062;13.952;100.608;2023-05-19T12:34:43;1005.46;;;34.79;44.52
37170;BME280;23062;13.952;100.608;2023-05-19T12:39:06;1005.45;;;34.78;45.17
37170;BME280;23062;13.952;100.608;2023-05-19T12:43:32;1005.56;;;34.79;45.94
37170;BME280;23062;13.952;100.608;2023-05-19T12:47:57;1005.67;;;34.81;46.86
37170;BME280;23062;13.952;100.608;2023-05-19T12:52:23;1005.74;;;34.82;47.61
37170;BME280;23062;13.952;100.608;2023-05-19T12:56:57;1005.84;;;34.81;48.21
37170;BME280;23062;13.952;100.608;2023-05-19T13:01:24;1005.86;;;34.81;48.92
37170;BME280;23062;13.952;100.608;2023-05-19T13:05:50;1005.86;;;34.81;49.55
37170;BME280;23062;13.952;100.608;2023-05-19T13:10:16;1006.00;;;34.79;50.40
37170;BME280;23062;13.952;100.608;2023-05-19T13:14:45;1006.14;;;34.79;50.60
37170;BME280;23062;13.952;100.608;2023-05-19T13:19:14;1006.17;;;34.79;51.12
37170;BME280;23062;13.952;100.608;2023-05-19T13:23:43;1006.26;;;34.82;51.19
37170;BME280;23062;13.952;100.608;2023-05-19T13:28:07;1006.40;;;34.81;51.50
37170;BME280;23062;13.952;100.608;2023-05-19T13:32:34;1006.53;;;34.80;52.27
37170;BME280;23062;13.952;100.608;2023-05-19T13:37:08;1006.60;;;34.79;52.77
37170;BME280;23062;13.952;100.608;2023-05-19T13:41:39;1006.61;;;34.76;52.99
37170;BME280;23062;13.952;100.608;2023-05-19T13:46:09;1006.67;;;34.75;53.03
37170;BME280;23062;13.952;100.608;2023-05-19T13:50:40;1006.72;;;34.72;53.08
37170;BME280;23062;13.952;100.608;2023-05-19T13:55:11;1006.78;;;34.74;53.22
37170;BME280;23062;13.952;100.608;2023-05-19T13:59:42;1006.77;;;34.72;53.45
37170;BME280;23062;13.952;100.608;2023-05-19T14:04:09;1006.80;;;34.71;53.64
37170;BME280;23062;13.952;100.608;2023-05-19T14:08:36;1006.87;;;34.69;53.71
37170;BME280;23062;13.952;100.608;2023-05-19T14:13:02;1006.99;;;34.70;53.73
37170;BME280;23062;13.952;100.608;2023-05-19T14:17:38;1007.02;;;34.70;53.85
37170;BME280;23062;13.952;100.608;2023-05-19T14:22:11;1007.01;;;34.68;53.89
37170;BME280;23062;13.952;100.608;2023-05-19T14:26:40;1007.07;;;34.66;53.99
37170;BME280;23062;13.952;100.608;2023-05-19T14:40:10;1007.18;;;34.62;54.51
37170;BME280;23062;13.952;100.608;2023-05-19T14:44:36;1007.18;;;34.61;54.68
37170;BME280;23062;13.952;100.608;2023-05-19T14:49:11;1007.29;;;34.63;54.75
37170;BME280;23062;13.952;100.608;2023-05-19T14:53:40;1007.35;;;34.61;54.95
37170;BME280;23062;13.952;100.608;2023-05-19T14:58:09;1007.36;;;34.60;55.26
37170;BME280;23062;13.952;100.608;2023-05-19T15:02:35;1007.38;;;34.62;55.39
37170;BME280;23062;13.952;100.608;2023-05-19T15:07:01;1007.43;;;34.59;55.72
37170;BME280;23062;13.952;100.608;2023-05-19T15:11:27;1007.44;;;34.60;55.81
37170;BME280;23062;13.952;100.608;2023-05-19T15:16:01;1007.50;;;34.61;56.01
37170;BME280;23062;13.952;100.608;2023-05-19T15:20:26;1007.53;;;34.59;56.22
37170;BME280;23062;13.952;100.608;2023-05-19T15:24:52;1007.52;;;34.58;56.44
37170;BME280;23062;13.952;100.608;2023-05-19T15:29:18;1007.67;;;34.61;56.34
37170;BME280;23062;13.952;100.608;2023-05-19T15:33:45;1007.67;;;34.61;56.33
37170;BME280;23062;13.952;100.608;2023-05-19T15:38:16;1007.67;;;34.70;56.32
37170;BME280;23062;13.952;100.608;2023-05-19T15:42:41;1007.66;;;34.87;55.56
37170;BME280;23062;13.952;100.608;2023-05-19T15:47:08;1007.71;;;34.94;54.88
37170;BME280;23062;13.952;100.608;2023-05-19T15:51:36;1007.66;;;34.96;54.81
37170;BME280;23062;13.952;100.608;2023-05-19T15:56:05;1007.55;;;34.96;54.69
37170;BME280;23062;13.952;100.608;2023-05-19T16:05:01;1007.52;;;34.99;54.21
37170;BME280;23062;13.952;100.608;2023-05-19T16:09:30;1007.54;;;34.97;54.18
37170;BME280;23062;13.952;100.608;2023-05-19T16:13:57;1007.47;;;34.93;54.43
37170;BME280;23062;13.952;100.608;2023-05-19T16:18:22;1007.41;;;34.94;53.55
37170;BME280;23062;13.952;100.608;2023-05-19T16:22:48;1007.43;;;34.92;53.27
37170;BME280;23062;13.952;100.608;2023-05-19T16:27:17;1007.41;;;34.90;52.91
37170;BME280;23062;13.952;100.608;2023-05-19T16:31:43;1007.37;;;34.88;52.85
37170;BME280;23062;13.952;100.608;2023-05-19T16:36:08;1007.30;;;34.88;52.54
37170;BME280;23062;13.952;100.608;2023-05-19T16:40:35;1007.14;;;34.84;52.06
37170;BME280;23062;13.952;100.608;2023-05-19T16:45:00;1007.11;;;34.85;51.76
37170;BME280;23062;13.952;100.608;2023-05-19T16:49:26;1007.11;;;34.83;51.27
37170;BME280;23062;13.952;100.608;2023-05-19T16:53:52;1007.09;;;34.78;51.15
37170;BME280;23062;13.952;100.608;2023-05-19T16:58:19;1007.11;;;34.79;50.99
37170;BME280;23062;13.952;100.608;2023-05-19T17:02:51;1007.01;;;34.76;50.66
37170;BME280;23062;13.952;100.608;2023-05-19T17:07:15;1007.01;;;34.75;50.48
37170;BME280;23062;13.952;100.608;2023-05-19T17:11:41;1006.99;;;34.74;50.26
37170;BME280;23062;13.952;100.608;2023-05-19T17:16:12;1006.99;;;34.71;49.97
37170;BME280;23062;13.952;100.608;2023-05-19T17:20:38;1006.92;;;34.70;48.93
37170;BME280;23062;13.952;100.608;2023-05-19T17:25:09;1006.82;;;34.67;48.05
37170;BME280;23062;13.952;100.608;2023-05-19T17:29:35;1006.74;;;34.61;47.85
37170;BME280;23062;13.952;100.608;2023-05-19T17:34:04;1006.69;;;34.60;47.70
37170;BME280;23062;13.952;100.608;2023-05-19T17:38:30;1006.67;;;34.57;46.84
37170;BME280;23062;13.952;100.608;2023-05-19T17:42:55;1006.65;;;34.56;47.06
37170;BME280;23062;13.952;100.608;2023-05-19T17:47:20;1006.55;;;34.52;46.44
37170;BME280;23062;13.952;100.608;2023-05-19T17:51:46;1006.52;;;34.49;46.00
37170;BME280;23062;13.952;100.608;2023-05-19T17:56:14;1006.48;;;34.45;45.98
37170;BME280;23062;13.952;100.608;2023-05-19T18:00:39;1006.42;;;34.46;45.80
37170;BME280;23062;13.952;100.608;2023-05-19T18:05:06;1006.37;;;34.44;45.75
37170;BME280;23062;13.952;100.608;2023-05-19T18:09:32;1006.37;;;34.41;45.48
37170;BME280;23062;13.952;100.608;2023-05-19T18:13:58;1006.25;;;34.38;45.53
37170;BME280;23062;13.952;100.608;2023-05-19T18:18:27;1006.15;;;34.37;45.47
37170;BME280;23062;13.952;100.608;2023-05-19T18:22:54;1006.10;;;34.38;45.60
37170;BME280;23062;13.952;100.608;2023-05-19T18:27:22;1006.08;;;34.36;45.29
37170;BME280;23062;13.952;100.608;2023-05-19T18:31:50;1006.00;;;34.35;45.33
37170;BME280;23062;13.952;100.608;2023-05-19T18:36:16;1006.05;;;34.34;45.30
37170;BME280;23062;13.952;100.608;2023-05-19T18:40:42;1005.99;;;34.34;45.30
37170;BME280;23062;13.952;100.608;2023-05-19T18:45:10;1005.92;;;34.33;45.35
37170;BME280;23062;13.952;100.608;2023-05-19T18:49:35;1005.88;;;34.29;45.16
37170;BME280;23062;13.952;100.608;2023-05-19T18:54:08;1005.82;;;34.27;45.00
37170;BME280;23062;13.952;100.608;2023-05-19T18:58:35;1005.84;;;34.25;44.83
37170;BME280;23062;13.952;100.608;2023-05-19T19:03:04;1005.80;;;34.25;45.09
37170;BME280;23062;13.952;100.608;2023-05-19T19:07:32;1005.87;;;34.25;44.92
37170;BME280;23062;13.952;100.608;2023-05-19T19:11:57;1005.84;;;34.23;44.91
37170;BME280;23062;13.952;100.608;2023-05-19T19:16:23;1005.79;;;34.22;45.07
37170;BME280;23062;13.952;100.608;2023-05-19T19:20:50;1005.85;;;34.20;45.14
37170;BME280;23062;13.952;100.608;2023-05-19T19:25:22;1005.84;;;34.21;44.94
37170;BME280;23062;13.952;100.608;2023-05-19T19:29:47;1005.89;;;34.19;44.97
37170;BME280;23062;13.952;100.608;2023-05-19T19:34:15;1005.81;;;34.17;44.78
37170;BME280;23062;13.952;100.608;2023-05-19T19:38:42;1005.81;;;34.16;44.84
37170;BME280;23062;13.952;100.608;2023-05-19T19:43:11;1005.81;;;34.16;44.87
37170;BME280;23062;13.952;100.608;2023-05-19T19:47:38;1005.84;;;34.13;44.84
37170;BME280;23062;13.952;100.608;2023-05-19T19:52:04;1005.80;;;34.13;44.87
37170;BME280;23062;13.952;100.608;2023-05-19T19:56:29;1005.82;;;34.12;44.77
37170;BME280;23062;13.952;100.608;2023-05-19T20:01:05;1005.74;;;34.09;44.85
37170;BME280;23062;13.952;100.608;2023-05-19T20:05:35;1005.68;;;34.07;44.90
37170;BME280;23062;13.952;100.608;2023-05-19T20:10:04;1005.69;;;34.07;44.93
37170;BME280;23062;13.952;100.608;2023-05-19T20:14:32;1005.73;;;34.06;44.80
37170;BME280;23062;13.952;100.608;2023-05-19T20:18:58;1005.76;;;34.03;44.85
37170;BME280;23062;13.952;100.608;2023-05-19T20:23:25;1005.68;;;34.03;44.88
37170;BME280;23062;13.952;100.608;2023-05-19T20:27:52;1005.69;;;34.03;44.91
37170;BME280;23062;13.952;100.608;2023-05-19T20:32:18;1005.65;;;34.01;44.94
37170;BME280;23062;13.952;100.608;2023-05-19T20:36:43;1005.67;;;34.01;44.87
37170;BME280;23062;13.952;100.608;2023-05-19T20:41:09;1005.71;;;33.99;44.92
37170;BME280;23062;13.952;100.608;2023-05-19T20:45:36;1005.72;;;33.98;44.89
37170;BME280;23062;13.952;100.608;2023-05-19T20:50:05;1005.74;;;33.98;44.98
37170;BME280;23062;13.952;100.608;2023-05-19T20:54:32;1005.72;;;33.96;44.89
37170;BME280;23062;13.952;100.608;2023-05-19T20:58:58;1005.78;;;33.94;45.06
37170;BME280;23062;13.952;100.608;2023-05-19T21:03:24;1005.84;;;33.91;44.95
37170;BME280;23062;13.952;100.608;2023-05-19T21:07:58;1005.83;;;33.90;45.05
37170;BME280;23062;13.952;100.608;2023-05-19T21:12:21;1005.85;;;33.89;44.96
37170;BME280;23062;13.952;100.608;2023-05-19T21:16:49;1005.89;;;33.88;44.92
37170;BME280;23062;13.952;100.608;2023-05-19T21:21:17;1005.88;;;33.88;45.03
37170;BME280;23062;13.952;100.608;2023-05-19T21:25:43;1005.95;;;33.86;44.99
37170;BME280;23062;13.952;100.608;2023-05-19T21:30:09;1005.88;;;33.84;45.02
37170;BME280;23062;13.952;100.608;2023-05-19T21:34:35;1005.93;;;33.83;45.10
37170;BME280;23062;13.952;100.608;2023-05-19T21:39:01;1005.92;;;33.82;45.10
37170;BME280;23062;13.952;100.608;2023-05-19T21:43:27;1006.00;;;33.80;45.10
37170;BME280;23062;13.952;100.608;2023-05-19T21:52:34;1006.08;;;33.81;45.23
37170;BME280;23062;13.952;100.608;2023-05-19T21:57:03;1006.18;;;33.74;45.57
37170;BME280;23062;13.952;100.608;2023-05-19T22:01:31;1006.21;;;33.51;45.76
37170;BME280;23062;13.952;100.608;2023-05-19T22:10:28;1006.32;;;33.23;46.15
37170;BME280;23062;13.952;100.608;2023-05-19T22:19:31;1006.34;;;32.93;46.50
37170;BME280;23062;13.952;100.608;2023-05-19T22:24:05;1006.36;;;32.83;46.67
37170;BME280;23062;13.952;100.608;2023-05-19T22:32:55;1006.44;;;32.66;47.54
37170;BME280;23062;13.952;100.608;2023-05-19T22:37:26;1006.45;;;32.64;47.65
37170;BME280;23062;13.952;100.608;2023-05-19T22:41:50;1006.42;;;32.60;47.73
37170;BME280;23062;13.952;100.608;2023-05-19T22:46:21;1006.47;;;32.56;47.83
37170;BME280;23062;13.952;100.608;2023-05-19T22:50:49;1006.49;;;32.54;47.84
37170;BME280;23062;13.952;100.608;2023-05-19T22:55:18;1006.56;;;32.47;48.41
37170;BME280;23062;13.952;100.608;2023-05-19T22:59:44;1006.63;;;32.46;48.77
37170;BME280;23062;13.952;100.608;2023-05-19T23:04:10;1006.62;;;32.48;48.75
37170;BME280;23062;13.952;100.608;2023-05-19T23:08:36;1006.69;;;32.45;48.78
37170;BME280;23062;13.952;100.608;2023-05-19T23:13:04;1006.74;;;32.42;48.70
37170;BME280;23062;13.952;100.608;2023-05-19T23:21:58;1006.88;;;32.43;49.79
37170;BME280;23062;13.952;100.608;2023-05-19T23:26:24;1006.89;;;32.39;50.65
37170;BME280;23062;13.952;100.608;2023-05-19T23:30:56;1006.96;;;32.32;51.18
37170;BME280;23062;13.952;100.608;2023-05-19T23:35:21;1006.95;;;32.27;51.60
37170;BME280;23062;13.952;100.608;2023-05-19T23:39:47;1006.95;;;32.28;52.09
37170;BME280;23062;13.952;100.608;2023-05-19T23:44:17;1006.96;;;32.27;51.96
37170;BME280;23062;13.952;100.608;2023-05-19T23:48:42;1007.06;;;32.31;51.72
37170;BME280;23062;13.952;100.608;2023-05-19T23:53:11;1007.07;;;32.37;51.70
37170;BME280;23062;13.952;100.608;2023-05-19T23:57:45;1007.02;;;32.34;51.52
